sensor_id;sensor_type;location;lat;lon;timestamp;P1;durP1;ratioP1;P2;durP2;ratioP2
21430;SDS011;10876;49.038;10.608;2022-09-01T06:39:38;11.63;;;8.70;;
21430;SDS011;10876;49.038;10.608;2022-09-01T06:42:05;12.65;;;9.43;;
21430;SDS011;10876;49.038;10.608;2022-09-01T06:44:33;11.25;;;8.05;;
21430;SDS011;10876;49.038;10.608;2022-09-01T06:47:00;15.45;;;9.90;;
21430;SDS011;10876;49.038;10.608;2022-09-01T06:49:29;13.68;;;9.70;;
21430;SDS011;10876;49.038;10.608;2022-09-01T06:51:58;14.43;;;9.52;;
21430;SDS011;10876;49.038;10.608;2022-09-01T06:54:27;12.20;;;9.35;;
21430;SDS011;10876;49.038;10.608;2022-09-01T06:57:00;12.23;;;8.85;;
21430;SDS011;10876;49.038;10.608;2022-09-01T06:59:28;11.48;;;8.93;;
21430;SDS011;10876;49.038;10.608;2022-09-01T07:01:56;13.02;;;9.63;;
21430;SDS011;10876;49.038;10.608;2022-09-01T07:04:25;12.63;;;9.52;;
21430;SDS011;10876;49.038;10.608;2022-09-01T07:06:53;13.75;;;9.77;;
21430;SDS011;10876;49.038;10.608;2022-09-01T07:09:21;13.73;;;9.73;;
21430;SDS011;10876;49.038;10.608;2022-09-01T07:11:48;12.70;;;9.55;;
21430;SDS011;10876;49.038;10.608;2022-09-01T07:14:18;14.15;;;9.77;;
21430;SDS011;10876;49.038;10.608;2022-09-01T07:16:45;13.98;;;9.40;;
21430;SDS011;10876;49.038;10.608;2022-09-01T07:19:12;12.77;;;9.55;;
21430;SDS011;10876;49.038;10.608;2022-09-01T07:21:40;12.38;;;8.90;;
21430;SDS011;10876;49.038;10.608;2022-09-01T07:24:08;10.75;;;8.02;;
21430;SDS011;10876;49.038;10.608;2022-09-01T07:26:36;14.52;;;9.80;;
21430;SDS011;10876;49.038;10.608;2022-09-01T07:29:04;12.52;;;9.32;;
21430;SDS011;10876;49.038;10.608;2022-09-01T07:31:35;11.93;;;8.23;;
21430;SDS011;10876;49.038;10.608;2022-09-01T07:34:05;12.00;;;9.02;;
21430;SDS011;10876;49.038;10.608;2022-09-01T07:36:37;13.90;;;9.30;;
21430;SDS011;10876;49.038;10.608;2022-09-01T07:39:06;12.75;;;9.30;;
21430;SDS011;10876;49.038;10.608;2022-09-01T07:41:33;13.88;;;9.05;;
21430;SDS011;10876;49.038;10.608;2022-09-01T07:44:01;12.13;;;8.35;;
21430;SDS011;10876;49.038;10.608;2022-09-01T07:46:35;12.27;;;7.93;;
21430;SDS011;10876;49.038;10.608;2022-09-01T07:49:02;13.63;;;9.48;;
21430;SDS011;10876;49.038;10.608;2022-09-01T07:51:30;12.70;;;9.30;;
21430;SDS011;10876;49.038;10.608;2022-09-01T07:53:59;12.75;;;9.00;;
21430;SDS011;10876;49.038;10.608;2022-09-01T07:56:26;14.32;;;9.55;;
21430;SDS011;10876;49.038;10.608;2022-09-01T07:58:55;13.02;;;9.38;;
21430;SDS011;10876;49.038;10.608;2022-09-01T08:01:23;14.38;;;9.18;;
21430;SDS011;10876;49.038;10.608;2022-09-01T08:03:53;12.57;;;9.10;;
21430;SDS011;10876;49.038;10.608;2022-09-01T08:06:22;13.15;;;9.10;;
21430;SDS011;10876;49.038;10.608;2022-09-01T08:08:51;12.40;;;9.05;;
21430;SDS011;10876;49.038;10.608;2022-09-01T08:11:20;13.05;;;9.93;;
21430;SDS011;10876;49.038;10.608;2022-09-01T08:13:49;12.32;;;8.60;;
21430;SDS011;10876;49.038;10.608;2022-09-01T08:16:17;11.85;;;8.75;;
21430;SDS011;10876;49.038;10.608;2022-09-01T08:18:46;11.68;;;9.00;;
21430;SDS011;10876;49.038;10.608;2022-09-01T08:21:15;13.05;;;9.32;;
21430;SDS011;10876;49.038;10.608;2022-09-01T08:23:46;10.98;;;8.60;;
21430;SDS011;10876;49.038;10.608;2022-09-01T08:26:14;11.52;;;9.02;;
21430;SDS011;10876;49.038;10.608;2022-09-01T08:28:42;10.43;;;8.50;;
21430;SDS011;10876;49.038;10.608;2022-09-01T08:31:10;12.25;;;9.15;;
21430;SDS011;10876;49.038;10.608;2022-09-01T08:33:38;15.65;;;9.07;;
21430;SDS011;10876;49.038;10.608;2022-09-01T08:36:06;12.10;;;8.77;;
21430;SDS011;10876;49.038;10.608;2022-09-01T08:38:36;12.68;;;9.38;;
21430;SDS011;10876;49.038;10.608;2022-09-01T08:41:04;11.30;;;8.32;;
21430;SDS011;10876;49.038;10.608;2022-09-01T08:43:42;11.38;;;8.57;;
21430;SDS011;10876;49.038;10.608;2022-09-01T08:46:20;12.63;;;8.90;;
21430;SDS011;10876;49.038;10.608;2022-09-01T08:48:51;9.27;;;6.25;;
21430;SDS011;10876;49.038;10.608;2022-09-01T08:51:21;12.50;;;8.73;;
21430;SDS011;10876;49.038;10.608;2022-09-01T08:53:56;10.27;;;7.75;;
21430;SDS011;10876;49.038;10.608;2022-09-01T08:56:27;11.95;;;8.18;;
21430;SDS011;10876;49.038;10.608;2022-09-01T08:58:54;12.02;;;8.20;;
21430;SDS011;10876;49.038;10.608;2022-09-01T09:01:23;11.00;;;7.50;;
21430;SDS011;10876;49.038;10.608;2022-09-01T09:04:02;11.48;;;7.93;;
21430;SDS011;10876;49.038;10.608;2022-09-01T09:06:40;10.30;;;7.10;;
21430;SDS011;10876;49.038;10.608;2022-09-01T09:09:15;10.18;;;6.93;;
21430;SDS011;10876;49.038;10.608;2022-09-01T09:14:44;8.50;;;7.00;;
21430;SDS011;10876;49.038;10.608;2022-09-01T09:17:26;9.43;;;6.30;;
21430;SDS011;10876;49.038;10.608;2022-09-01T09:19:55;12.05;;;7.88;;
21430;SDS011;10876;49.038;10.608;2022-09-01T09:22:22;10.52;;;7.57;;
21430;SDS011;10876;49.038;10.608;2022-09-01T09:24:51;8.70;;;6.88;;
21430;SDS011;10876;49.038;10.608;2022-09-01T09:27:22;8.65;;;6.10;;
21430;SDS011;10876;49.038;10.608;2022-09-01T09:29:51;11.65;;;8.02;;
21430;SDS011;10876;49.038;10.608;2022-09-01T09:32:21;10.95;;;7.25;;
21430;SDS011;10876;49.038;10.608;2022-09-01T09:34:50;10.55;;;7.53;;
21430;SDS011;10876;49.038;10.608;2022-09-01T09:37:21;9.00;;;6.63;;
21430;SDS011;10876;49.038;10.608;2022-09-01T09:40:05;8.52;;;6.43;;
21430;SDS011;10876;49.038;10.608;2022-09-01T09:42:35;8.40;;;6.90;;
21430;SDS011;10876;49.038;10.608;2022-09-01T09:45:04;9.55;;;7.20;;
21430;SDS011;10876;49.038;10.608;2022-09-01T09:47:39;9.05;;;7.28;;
21430;SDS011;10876;49.038;10.608;2022-09-01T09:50:18;9.95;;;7.47;;
21430;SDS011;10876;49.038;10.608;2022-09-01T09:52:49;9.68;;;7.22;;
21430;SDS011;10876;49.038;10.608;2022-09-01T09:58:08;9.48;;;5.97;;
21430;SDS011;10876;49.038;10.608;2022-09-01T10:00:36;9.98;;;7.03;;
21430;SDS011;10876;49.038;10.608;2022-09-01T10:03:05;7.38;;;5.45;;
21430;SDS011;10876;49.038;10.608;2022-09-01T10:05:35;9.77;;;5.50;;
21430;SDS011;10876;49.038;10.608;2022-09-01T10:08:05;7.57;;;5.90;;
21430;SDS011;10876;49.038;10.608;2022-09-01T10:10:40;9.25;;;6.20;;
21430;SDS011;10876;49.038;10.608;2022-09-01T10:13:10;9.48;;;6.13;;
21430;SDS011;10876;49.038;10.608;2022-09-01T10:15:40;13.20;;;6.75;;
21430;SDS011;10876;49.038;10.608;2022-09-01T10:18:11;7.80;;;6.68;;
21430;SDS011;10876;49.038;10.608;2022-09-01T10:20:43;9.45;;;6.80;;
21430;SDS011;10876;49.038;10.608;2022-09-01T10:23:14;10.68;;;6.82;;
21430;SDS011;10876;49.038;10.608;2022-09-01T10:25:43;8.45;;;6.68;;
21430;SDS011;10876;49.038;10.608;2022-09-01T10:28:11;8.10;;;6.15;;
21430;SDS011;10876;49.038;10.608;2022-09-01T10:30:43;7.28;;;5.80;;
21430;SDS011;10876;49.038;10.608;2022-09-01T10:33:14;7.47;;;6.03;;
21430;SDS011;10876;49.038;10.608;2022-09-01T10:35:43;10.25;;;7.03;;
21430;SDS011;10876;49.038;10.608;2022-09-01T10:38:14;7.72;;;5.85;;
21430;SDS011;10876;49.038;10.608;2022-09-01T10:40:44;7.15;;;6.25;;
21430;SDS011;10876;49.038;10.608;2022-09-01T10:43:22;7.43;;;5.70;;
21430;SDS011;10876;49.038;10.608;2022-09-01T10:45:52;7.15;;;5.88;;
21430;SDS011;10876;49.038;10.608;2022-09-01T10:48:25;6.75;;;5.72;;
21430;SDS011;10876;49.038;10.608;2022-09-01T10:53:54;7.07;;;5.78;;
21430;SDS011;10876;49.038;10.608;2022-09-01T10:56:25;7.28;;;6.00;;
21430;SDS011;10876;49.038;10.608;2022-09-01T10:59:05;7.93;;;6.70;;
21430;SDS011;10876;49.038;10.608;2022-09-01T11:07:39;6.55;;;5.05;;
21430;SDS011;10876;49.038;10.608;2022-09-01T11:10:09;8.25;;;5.10;;
21430;SDS011;10876;49.038;10.608;2022-09-01T11:12:56;5.95;;;4.53;;
21430;SDS011;10876;49.038;10.608;2022-09-01T11:15:54;5.15;;;4.57;;
21430;SDS011;10876;49.038;10.608;2022-09-01T11:18:23;6.25;;;4.60;;
21430;SDS011;10876;49.038;10.608;2022-09-01T11:20:53;4.90;;;4.28;;
21430;SDS011;10876;49.038;10.608;2022-09-01T11:23:22;5.75;;;4.30;;
21430;SDS011;10876;49.038;10.608;2022-09-01T11:25:52;4.95;;;4.05;;
21430;SDS011;10876;49.038;10.608;2022-09-01T11:31:24;5.05;;;3.55;;
21430;SDS011;10876;49.038;10.608;2022-09-01T11:33:57;6.00;;;4.20;;
21430;SDS011;10876;49.038;10.608;2022-09-01T11:36:30;5.05;;;4.00;;
21430;SDS011;10876;49.038;10.608;2022-09-01T11:39:05;5.75;;;4.20;;
21430;SDS011;10876;49.038;10.608;2022-09-01T11:41:43;5.43;;;3.85;;
21430;SDS011;10876;49.038;10.608;2022-09-01T11:44:20;5.55;;;4.18;;
21430;SDS011;10876;49.038;10.608;2022-09-01T11:46:50;5.70;;;3.90;;
21430;SDS011;10876;49.038;10.608;2022-09-01T11:49:25;4.13;;;3.50;;
21430;SDS011;10876;49.038;10.608;2022-09-01T11:51:56;4.90;;;4.00;;
21430;SDS011;10876;49.038;10.608;2022-09-01T11:54:26;6.10;;;3.58;;
21430;SDS011;10876;49.038;10.608;2022-09-01T11:56:54;4.25;;;3.47;;
21430;SDS011;10876;49.038;10.608;2022-09-01T11:59:35;5.25;;;3.88;;
21430;SDS011;10876;49.038;10.608;2022-09-01T12:02:03;4.45;;;3.53;;
21430;SDS011;10876;49.038;10.608;2022-09-01T12:04:31;4.45;;;3.35;;
21430;SDS011;10876;49.038;10.608;2022-09-01T12:07:03;3.78;;;3.38;;
21430;SDS011;10876;49.038;10.608;2022-09-01T12:09:33;4.07;;;3.40;;
21430;SDS011;10876;49.038;10.608;2022-09-01T12:12:03;4.20;;;3.42;;
21430;SDS011;10876;49.038;10.608;2022-09-01T12:14:30;4.95;;;3.83;;
21430;SDS011;10876;49.038;10.608;2022-09-01T12:17:00;4.05;;;3.65;;
21430;SDS011;10876;49.038;10.608;2022-09-01T12:19:30;4.40;;;3.78;;
21430;SDS011;10876;49.038;10.608;2022-09-01T12:22:01;4.82;;;4.00;;
21430;SDS011;10876;49.038;10.608;2022-09-01T12:24:33;4.88;;;3.50;;
21430;SDS011;10876;49.038;10.608;2022-09-01T12:27:01;3.90;;;3.50;;
21430;SDS011;10876;49.038;10.608;2022-09-01T12:29:29;4.50;;;4.00;;
21430;SDS011;10876;49.038;10.608;2022-09-01T12:31:57;5.95;;;3.22;;
21430;SDS011;10876;49.038;10.608;2022-09-01T12:34:34;4.97;;;3.58;;
21430;SDS011;10876;49.038;10.608;2022-09-01T12:37:06;5.18;;;3.53;;
21430;SDS011;10876;49.038;10.608;2022-09-01T12:39:36;3.92;;;3.53;;
21430;SDS011;10876;49.038;10.608;2022-09-01T12:42:05;5.40;;;3.75;;
21430;SDS011;10876;49.038;10.608;2022-09-01T12:44:42;5.68;;;4.13;;
21430;SDS011;10876;49.038;10.608;2022-09-01T12:50:34;4.43;;;3.75;;
21430;SDS011;10876;49.038;10.608;2022-09-01T12:53:03;3.88;;;3.47;;
21430;SDS011;10876;49.038;10.608;2022-09-01T12:55:41;3.80;;;3.40;;
21430;SDS011;10876;49.038;10.608;2022-09-01T12:58:27;4.47;;;3.45;;
21430;SDS011;10876;49.038;10.608;2022-09-01T13:06:41;3.97;;;3.58;;
21430;SDS011;10876;49.038;10.608;2022-09-01T13:09:08;4.50;;;3.70;;
21430;SDS011;10876;49.038;10.608;2022-09-01T13:11:37;4.43;;;3.70;;
21430;SDS011;10876;49.038;10.608;2022-09-01T13:14:06;4.43;;;3.40;;
21430;SDS011;10876;49.038;10.608;2022-09-01T13:16:33;4.95;;;3.70;;
21430;SDS011;10876;49.038;10.608;2022-09-01T13:19:01;4.93;;;3.65;;
21430;SDS011;10876;49.038;10.608;2022-09-01T13:21:30;5.47;;;4.07;;
21430;SDS011;10876;49.038;10.608;2022-09-01T13:23:58;4.03;;;3.63;;
21430;SDS011;10876;49.038;10.608;2022-09-01T13:26:26;4.72;;;3.67;;
21430;SDS011;10876;49.038;10.608;2022-09-01T13:28:55;5.55;;;3.42;;
21430;SDS011;10876;49.038;10.608;2022-09-01T13:31:22;4.20;;;3.80;;
21430;SDS011;10876;49.038;10.608;2022-09-01T13:33:50;4.10;;;3.60;;
21430;SDS011;10876;49.038;10.608;2022-09-01T13:36:17;5.88;;;4.20;;
21430;SDS011;10876;49.038;10.608;2022-09-01T13:38:45;3.92;;;3.38;;
21430;SDS011;10876;49.038;10.608;2022-09-01T13:41:12;6.57;;;3.88;;
21430;SDS011;10876;49.038;10.608;2022-09-01T13:43:42;4.32;;;3.58;;
21430;SDS011;10876;49.038;10.608;2022-09-01T13:46:11;4.07;;;3.08;;
21430;SDS011;10876;49.038;10.608;2022-09-01T13:48:39;5.10;;;3.63;;
21430;SDS011;10876;49.038;10.608;2022-09-01T13:51:06;4.15;;;3.45;;
21430;SDS011;10876;49.038;10.608;2022-09-01T13:53:34;3.58;;;3.28;;
21430;SDS011;10876;49.038;10.608;2022-09-01T13:56:04;4.05;;;3.65;;
21430;SDS011;10876;49.038;10.608;2022-09-01T13:58:31;4.35;;;3.50;;
21430;SDS011;10876;49.038;10.608;2022-09-01T14:00:58;3.80;;;3.30;;
21430;SDS011;10876;49.038;10.608;2022-09-01T14:03:26;4.15;;;3.28;;
21430;SDS011;10876;49.038;10.608;2022-09-01T14:05:56;5.30;;;3.50;;
21430;SDS011;10876;49.038;10.608;2022-09-01T14:08:26;4.32;;;3.35;;
21430;SDS011;10876;49.038;10.608;2022-09-01T14:10:53;4.00;;;3.50;;
21430;SDS011;10876;49.038;10.608;2022-09-01T14:13:22;3.70;;;3.33;;
21430;SDS011;10876;49.038;10.608;2022-09-01T14:15:50;2.83;;;2.63;;
21430;SDS011;10876;49.038;10.608;2022-09-01T14:18:17;4.22;;;3.10;;
21430;SDS011;10876;49.038;10.608;2022-09-01T14:20:46;4.80;;;3.20;;
21430;SDS011;10876;49.038;10.608;2022-09-01T14:23:16;3.97;;;2.85;;
21430;SDS011;10876;49.038;10.608;2022-09-01T14:25:46;3.70;;;2.92;;
21430;SDS011;10876;49.038;10.608;2022-09-01T14:28:14;3.10;;;2.80;;
21430;SDS011;10876;49.038;10.608;2022-09-01T14:30:43;3.58;;;2.72;;
21430;SDS011;10876;49.038;10.608;2022-09-01T14:33:11;3.95;;;2.92;;
21430;SDS011;10876;49.038;10.608;2022-09-01T14:35:39;4.10;;;2.78;;
21430;SDS011;10876;49.038;10.608;2022-09-01T14:38:07;3.90;;;3.05;;
21430;SDS011;10876;49.038;10.608;2022-09-01T14:40:34;3.05;;;2.75;;
21430;SDS011;10876;49.038;10.608;2022-09-01T14:43:03;4.40;;;3.10;;
21430;SDS011;10876;49.038;10.608;2022-09-01T14:45:31;4.18;;;3.35;;
21430;SDS011;10876;49.038;10.608;2022-09-01T14:47:59;3.75;;;3.45;;
21430;SDS011;10876;49.038;10.608;2022-09-01T14:50:27;4.28;;;3.10;;
21430;SDS011;10876;49.038;10.608;2022-09-01T14:52:58;4.07;;;3.10;;
21430;SDS011;10876;49.038;10.608;2022-09-01T14:55:27;3.67;;;3.15;;
21430;SDS011;10876;49.038;10.608;2022-09-01T14:57:55;4.15;;;3.20;;
21430;SDS011;10876;49.038;10.608;2022-09-01T15:00:24;4.00;;;3.60;;
21430;SDS011;10876;49.038;10.608;2022-09-01T15:02:51;3.65;;;3.10;;
21430;SDS011;10876;49.038;10.608;2022-09-01T15:05:21;3.97;;;3.25;;
21430;SDS011;10876;49.038;10.608;2022-09-01T15:07:49;4.38;;;3.40;;
21430;SDS011;10876;49.038;10.608;2022-09-01T15:10:17;5.00;;;3.33;;
21430;SDS011;10876;49.038;10.608;2022-09-01T15:12:46;3.70;;;3.25;;
21430;SDS011;10876;49.038;10.608;2022-09-01T15:15:14;3.95;;;3.22;;
21430;SDS011;10876;49.038;10.608;2022-09-01T15:17:42;7.78;;;3.40;;
21430;SDS011;10876;49.038;10.608;2022-09-01T15:20:09;7.03;;;3.70;;
21430;SDS011;10876;49.038;10.608;2022-09-01T15:23:06;3.85;;;3.22;;
21430;SDS011;10876;49.038;10.608;2022-09-01T15:25:35;3.88;;;3.42;;
21430;SDS011;10876;49.038;10.608;2022-09-01T15:28:02;8.77;;;3.35;;
21430;SDS011;10876;49.038;10.608;2022-09-01T15:30:30;4.03;;;3.50;;
21430;SDS011;10876;49.038;10.608;2022-09-01T15:32:57;3.58;;;3.28;;
21430;SDS011;10876;49.038;10.608;2022-09-01T15:35:25;4.70;;;3.53;;
21430;SDS011;10876;49.038;10.608;2022-09-01T15:37:54;5.00;;;4.00;;
21430;SDS011;10876;49.038;10.608;2022-09-01T15:40:24;4.72;;;3.53;;
21430;SDS011;10876;49.038;10.608;2022-09-01T15:42:52;5.85;;;3.58;;
21430;SDS011;10876;49.038;10.608;2022-09-01T15:45:21;3.97;;;3.58;;
21430;SDS011;10876;49.038;10.608;2022-09-01T15:47:49;3.63;;;3.33;;
21430;SDS011;10876;49.038;10.608;2022-09-01T15:50:17;3.72;;;3.33;;
21430;SDS011;10876;49.038;10.608;2022-09-01T15:52:47;3.22;;;2.92;;
21430;SDS011;10876;49.038;10.608;2022-09-01T15:55:17;4.15;;;3.60;;
21430;SDS011;10876;49.038;10.608;2022-09-01T15:57:47;3.42;;;3.10;;
21430;SDS011;10876;49.038;10.608;2022-09-01T16:00:15;4.20;;;3.20;;
21430;SDS011;10876;49.038;10.608;2022-09-01T16:02:43;3.65;;;3.03;;
21430;SDS011;10876;49.038;10.608;2022-09-01T16:05:11;4.55;;;3.22;;
21430;SDS011;10876;49.038;10.608;2022-09-01T16:07:39;5.72;;;3.33;;
21430;SDS011;10876;49.038;10.608;2022-09-01T16:10:10;4.38;;;2.90;;
21430;SDS011;10876;49.038;10.608;2022-09-01T16:12:38;4.60;;;3.30;;
21430;SDS011;10876;49.038;10.608;2022-09-01T16:15:10;3.58;;;3.20;;
21430;SDS011;10876;49.038;10.608;2022-09-01T16:17:51;3.63;;;2.83;;
21430;SDS011;10876;49.038;10.608;2022-09-01T16:21:00;3.25;;;2.80;;
21430;SDS011;10876;49.038;10.608;2022-09-01T16:23:37;5.35;;;3.65;;
21430;SDS011;10876;49.038;10.608;2022-09-01T16:26:10;4.57;;;3.20;;
21430;SDS011;10876;49.038;10.608;2022-09-01T16:28:46;3.88;;;3.47;;
21430;SDS011;10876;49.038;10.608;2022-09-01T16:31:18;4.13;;;3.05;;
21430;SDS011;10876;49.038;10.608;2022-09-01T16:33:49;3.30;;;2.90;;
21430;SDS011;10876;49.038;10.608;2022-09-01T16:36:27;4.00;;;2.90;;
21430;SDS011;10876;49.038;10.608;2022-09-01T16:39:02;3.55;;;3.20;;
21430;SDS011;10876;49.038;10.608;2022-09-01T16:41:40;3.83;;;3.42;;
21430;SDS011;10876;49.038;10.608;2022-09-01T16:44:19;5.07;;;3.30;;
21430;SDS011;10876;49.038;10.608;2022-09-01T16:46:58;3.80;;;3.40;;
21430;SDS011;10876;49.038;10.608;2022-09-01T16:49:35;4.20;;;3.17;;
21430;SDS011;10876;49.038;10.608;2022-09-01T16:52:15;3.50;;;3.20;;
21430;SDS011;10876;49.038;10.608;2022-09-01T16:54:51;3.30;;;3.00;;
21430;SDS011;10876;49.038;10.608;2022-09-01T16:57:27;4.97;;;3.40;;
21430;SDS011;10876;49.038;10.608;2022-09-01T17:00:02;4.93;;;3.35;;
21430;SDS011;10876;49.038;10.608;2022-09-01T17:02:34;5.43;;;3.30;;
21430;SDS011;10876;49.038;10.608;2022-09-01T17:05:13;4.68;;;3.35;;
21430;SDS011;10876;49.038;10.608;2022-09-01T17:07:51;4.40;;;3.70;;
21430;SDS011;10876;49.038;10.608;2022-09-01T17:10:32;3.70;;;3.30;;
21430;SDS011;10876;49.038;10.608;2022-09-01T17:13:14;6.88;;;4.57;;
21430;SDS011;10876;49.038;10.608;2022-09-01T17:15:45;6.25;;;4.97;;
21430;SDS011;10876;49.038;10.608;2022-09-01T17:18:20;5.65;;;3.63;;
21430;SDS011;10876;49.038;10.608;2022-09-01T17:20:58;3.60;;;3.30;;
21430;SDS011;10876;49.038;10.608;2022-09-01T17:23:29;3.85;;;3.45;;
21430;SDS011;10876;49.038;10.608;2022-09-01T17:26:03;4.38;;;3.08;;
21430;SDS011;10876;49.038;10.608;2022-09-01T17:28:36;5.25;;;3.80;;
21430;SDS011;10876;49.038;10.608;2022-09-01T17:31:09;4.93;;;3.63;;
21430;SDS011;10876;49.038;10.608;2022-09-01T17:33:49;4.50;;;4.00;;
21430;SDS011;10876;49.038;10.608;2022-09-01T17:36:29;4.43;;;3.60;;
21430;SDS011;10876;49.038;10.608;2022-09-01T17:39:06;4.00;;;3.60;;
21430;SDS011;10876;49.038;10.608;2022-09-01T17:41:43;7.25;;;5.00;;
21430;SDS011;10876;49.038;10.608;2022-09-01T17:44:17;5.28;;;3.45;;
21430;SDS011;10876;49.038;10.608;2022-09-01T17:46:52;5.60;;;4.30;;
21430;SDS011;10876;49.038;10.608;2022-09-01T17:49:30;4.18;;;3.78;;
21430;SDS011;10876;49.038;10.608;2022-09-01T17:52:19;7.63;;;4.03;;
21430;SDS011;10876;49.038;10.608;2022-09-01T17:54:54;4.68;;;3.45;;
21430;SDS011;10876;49.038;10.608;2022-09-01T17:57:27;5.32;;;3.70;;
21430;SDS011;10876;49.038;10.608;2022-09-01T18:00:00;5.43;;;3.70;;
21430;SDS011;10876;49.038;10.608;2022-09-01T18:02:44;4.75;;;3.67;;
21430;SDS011;10876;49.038;10.608;2022-09-01T18:05:24;4.32;;;3.53;;
21430;SDS011;10876;49.038;10.608;2022-09-01T18:07:59;4.60;;;3.67;;
21430;SDS011;10876;49.038;10.608;2022-09-01T18:10:32;3.97;;;3.60;;
21430;SDS011;10876;49.038;10.608;2022-09-01T18:13:04;5.03;;;3.90;;
21430;SDS011;10876;49.038;10.608;2022-09-01T18:15:37;5.43;;;3.70;;
21430;SDS011;10876;49.038;10.608;2022-09-01T18:18:09;4.32;;;3.42;;
21430;SDS011;10876;49.038;10.608;2022-09-01T18:20:50;5.82;;;3.80;;
21430;SDS011;10876;49.038;10.608;2022-09-01T18:23:23;6.22;;;3.80;;
21430;SDS011;10876;49.038;10.608;2022-09-01T18:25:51;4.25;;;3.85;;
21430;SDS011;10876;49.038;10.608;2022-09-01T18:28:21;5.03;;;3.83;;
21430;SDS011;10876;49.038;10.608;2022-09-01T18:30:50;4.30;;;3.65;;
21430;SDS011;10876;49.038;10.608;2022-09-01T18:33:25;4.70;;;4.20;;
21430;SDS011;10876;49.038;10.608;2022-09-01T18:36:00;7.47;;;4.20;;
21430;SDS011;10876;49.038;10.608;2022-09-01T18:38:37;6.05;;;3.85;;
21430;SDS011;10876;49.038;10.608;2022-09-01T18:44:10;5.00;;;4.10;;
21430;SDS011;10876;49.038;10.608;2022-09-01T18:46:51;4.32;;;3.70;;
21430;SDS011;10876;49.038;10.608;2022-09-01T18:49:27;6.28;;;3.80;;
21430;SDS011;10876;49.038;10.608;2022-09-01T18:52:03;4.20;;;3.65;;
21430;SDS011;10876;49.038;10.608;2022-09-01T18:54:42;4.57;;;3.78;;
21430;SDS011;10876;49.038;10.608;2022-09-01T18:57:16;4.82;;;3.88;;
21430;SDS011;10876;49.038;10.608;2022-09-01T19:05:33;4.75;;;4.13;;
21430;SDS011;10876;49.038;10.608;2022-09-01T19:08:14;5.65;;;4.20;;
21430;SDS011;10876;49.038;10.608;2022-09-01T19:10:49;4.93;;;3.88;;
21430;SDS011;10876;49.038;10.608;2022-09-01T19:13:27;4.15;;;3.72;;
21430;SDS011;10876;49.038;10.608;2022-09-01T19:16:05;4.57;;;4.00;;
21430;SDS011;10876;49.038;10.608;2022-09-01T19:18:44;4.82;;;4.22;;
21430;SDS011;10876;49.038;10.608;2022-09-01T19:21:23;5.70;;;4.10;;
21430;SDS011;10876;49.038;10.608;2022-09-01T19:23:57;5.47;;;4.47;;
21430;SDS011;10876;49.038;10.608;2022-09-01T19:26:29;6.90;;;4.43;;
21430;SDS011;10876;49.038;10.608;2022-09-01T19:29:03;5.32;;;4.57;;
21430;SDS011;10876;49.038;10.608;2022-09-01T19:31:35;5.30;;;4.57;;
21430;SDS011;10876;49.038;10.608;2022-09-01T19:34:09;6.38;;;4.72;;
21430;SDS011;10876;49.038;10.608;2022-09-01T19:36:41;5.18;;;4.03;;
21430;SDS011;10876;49.038;10.608;2022-09-01T19:39:13;4.80;;;4.10;;
21430;SDS011;10876;49.038;10.608;2022-09-01T19:41:42;6.05;;;4.40;;
21430;SDS011;10876;49.038;10.608;2022-09-01T19:44:18;6.05;;;4.13;;
21430;SDS011;10876;49.038;10.608;2022-09-01T19:46:48;5.70;;;4.45;;
21430;SDS011;10876;49.038;10.608;2022-09-01T19:49:21;5.68;;;4.47;;
21430;SDS011;10876;49.038;10.608;2022-09-01T19:51:55;5.90;;;4.45;;
21430;SDS011;10876;49.038;10.608;2022-09-01T19:54:33;6.55;;;4.47;;
21430;SDS011;10876;49.038;10.608;2022-09-01T19:57:07;5.03;;;4.28;;
21430;SDS011;10876;49.038;10.608;2022-09-01T19:59:42;4.90;;;4.40;;
21430;SDS011;10876;49.038;10.608;2022-09-01T20:02:18;4.70;;;4.10;;
21430;SDS011;10876;49.038;10.608;2022-09-01T20:04:51;7.10;;;5.03;;
21430;SDS011;10876;49.038;10.608;2022-09-01T20:07:26;7.28;;;4.70;;
21430;SDS011;10876;49.038;10.608;2022-09-01T20:10:03;5.65;;;4.45;;
21430;SDS011;10876;49.038;10.608;2022-09-01T20:12:41;6.82;;;3.90;;
21430;SDS011;10876;49.038;10.608;2022-09-01T20:15:16;5.60;;;4.63;;
21430;SDS011;10876;49.038;10.608;2022-09-01T20:17:51;4.55;;;4.10;;
21430;SDS011;10876;49.038;10.608;2022-09-01T20:20:23;5.93;;;4.50;;
21430;SDS011;10876;49.038;10.608;2022-09-01T20:22:57;4.95;;;4.45;;
21430;SDS011;10876;49.038;10.608;2022-09-01T20:25:30;4.40;;;3.75;;
21430;SDS011;10876;49.038;10.608;2022-09-01T20:28:06;5.65;;;4.10;;
21430;SDS011;10876;49.038;10.608;2022-09-01T20:30:43;5.80;;;4.15;;
21430;SDS011;10876;49.038;10.608;2022-09-01T20:33:15;4.32;;;3.78;;
21430;SDS011;10876;49.038;10.608;2022-09-01T20:35:51;6.18;;;4.18;;
21430;SDS011;10876;49.038;10.608;2022-09-01T20:38:24;4.88;;;4.22;;
21430;SDS011;10876;49.038;10.608;2022-09-01T20:41:17;6.00;;;4.30;;
21430;SDS011;10876;49.038;10.608;2022-09-01T20:43:48;5.57;;;4.18;;
21430;SDS011;10876;49.038;10.608;2022-09-01T20:46:17;5.40;;;4.15;;
21430;SDS011;10876;49.038;10.608;2022-09-01T20:48:45;4.93;;;4.07;;
21430;SDS011;10876;49.038;10.608;2022-09-01T20:51:13;4.45;;;3.85;;
21430;SDS011;10876;49.038;10.608;2022-09-01T20:54:01;4.68;;;3.70;;
21430;SDS011;10876;49.038;10.608;2022-09-01T20:56:41;5.75;;;3.88;;
21430;SDS011;10876;49.038;10.608;2022-09-01T20:59:16;5.00;;;3.80;;
21430;SDS011;10876;49.038;10.608;2022-09-01T21:01:54;5.18;;;4.00;;
21430;SDS011;10876;49.038;10.608;2022-09-01T21:04:30;5.78;;;3.80;;
21430;SDS011;10876;49.038;10.608;2022-09-01T21:07:07;6.38;;;4.00;;
21430;SDS011;10876;49.038;10.608;2022-09-01T21:09:42;6.03;;;4.00;;
21430;SDS011;10876;49.038;10.608;2022-09-01T21:12:22;4.72;;;3.97;;
21430;SDS011;10876;49.038;10.608;2022-09-01T21:15:08;4.97;;;3.90;;
21430;SDS011;10876;49.038;10.608;2022-09-01T21:17:43;4.55;;;4.10;;
21430;SDS011;10876;49.038;10.608;2022-09-01T21:20:24;4.93;;;3.78;;
21430;SDS011;10876;49.038;10.608;2022-09-01T21:23:04;8.25;;;4.40;;
21430;SDS011;10876;49.038;10.608;2022-09-01T21:25:31;5.45;;;4.03;;
21430;SDS011;10876;49.038;10.608;2022-09-01T21:28:00;7.10;;;4.35;;
21430;SDS011;10876;49.038;10.608;2022-09-01T21:30:31;4.40;;;3.78;;
21430;SDS011;10876;49.038;10.608;2022-09-01T21:33:01;7.22;;;4.07;;
21430;SDS011;10876;49.038;10.608;2022-09-01T21:35:29;4.00;;;3.50;;
21430;SDS011;10876;49.038;10.608;2022-09-01T21:37:56;4.22;;;3.78;;
21430;SDS011;10876;49.038;10.608;2022-09-01T21:40:23;7.00;;;3.90;;
21430;SDS011;10876;49.038;10.608;2022-09-01T21:42:52;7.05;;;3.80;;
21430;SDS011;10876;49.038;10.608;2022-09-01T21:45:23;4.85;;;3.92;;
21430;SDS011;10876;49.038;10.608;2022-09-01T21:47:51;4.88;;;3.97;;
21430;SDS011;10876;49.038;10.608;2022-09-01T21:50:20;5.40;;;3.88;;
21430;SDS011;10876;49.038;10.608;2022-09-01T21:52:48;4.15;;;3.58;;
21430;SDS011;10876;49.038;10.608;2022-09-01T21:55:16;5.22;;;3.90;;
21430;SDS011;10876;49.038;10.608;2022-09-01T21:57:43;4.20;;;3.70;;
21430;SDS011;10876;49.038;10.608;2022-09-01T22:00:12;5.20;;;3.53;;
21430;SDS011;10876;49.038;10.608;2022-09-01T22:02:42;7.38;;;3.80;;
21430;SDS011;10876;49.038;10.608;2022-09-01T22:05:09;3.95;;;3.53;;
21430;SDS011;10876;49.038;10.608;2022-09-01T22:07:37;3.85;;;3.45;;
21430;SDS011;10876;49.038;10.608;2022-09-01T22:10:06;6.60;;;3.88;;
21430;SDS011;10876;49.038;10.608;2022-09-01T22:12:37;3.97;;;3.53;;